• Join FlightAware (Why Join?)
  • Login
  • US Flag 
04:00AM EDT


 

Airport Tracker/Info


-or-


 

Live Flight TrackerFlight Track Log ✈ ASQ6151 ✈ 04-Jul-2013 ✈ KBWI - KORD

Flight Track Log - Related Links

Times and Time Zones

All times are in EDT time to prevent confusion due to time zone crossing. See the ASQ6151 flight status page for this flight to view local times or setup timezone preferences in your user account.

Time Position Orientation Groundspeed Altitude Reporting Facility
EDT Latitude Longitude Course Direction KTS MPH feet Rate Location/Type
05:40AM 39.1294 -76.6592 218° Southwest 153 176 2,200  Level Washington Center
05:41AM 39.1394 -76.7289 280° West 218 251 3,800 1,440 Climbing Washington Center
05:42AM 39.2000 -77.0541 270° West  Level FlightAware Approximate
05:42AM 39.1658 -76.7989 296° West 259 298 5,100  Level Washington Center
05:43AM 39.1770 -77.1716 211° Southwest  Level FlightAware Approximate
05:43AM 39.1564 -76.9006 263° West 259 298 7,600  Level Washington Center
05:44AM 39.0889 -77.2402 211° Southwest  Level FlightAware Approximate
05:44AM 39.1428 -76.9914 259° West 259 298 9,600  Level Washington Center
05:45AM 39.0034 -77.3133 218° Southwest  Level FlightAware Approximate
05:45AM 39.1292 -77.0928 260° West 270 311 10,500  Level Washington Center
05:46AM 39.1131 -77.2075 260° West 301 346 11,400 1,380 Climbing Washington Center
05:47AM 39.0947 -77.3219 258° West 322 371 13,300 1,500 Climbing Washington Center
05:48AM 39.0786 -77.4367 260° West 334 384 14,400 1,020 Climbing Washington Center
05:49AM 39.0619 -77.5592 260° West 334 384 15,400 840 Climbing Washington Center
05:50AM 39.0456 -77.6708 259° West 347 399 16,200 900 Climbing Washington Center
05:51AM 39.0222 -77.8092 258° West 358 412 17,300 840 Climbing Washington Center
05:52AM 39.0031 -77.9369 259° West 370 426 17,900 720 Climbing Washington Center
05:53AM 38.9861 -78.0564 260° West 375 432 18,800 840 Climbing Washington Center
05:54AM 38.9647 -78.1867 258° West 375 432 19,700 900 Climbing Washington Center
05:55AM 38.9639 -78.3200 270° West 375 432 20,700 900 Climbing Washington Center
05:56AM 38.9689 -78.4592 273° West 375 432 21,600 960 Climbing Washington Center
05:57AM 38.9719 -78.5953 272° West 387 445 22,600 900 Climbing Washington Center
05:58AM 38.9744 -78.7369 271° West 387 445 23,500 900 Climbing Washington Center
05:59AM 38.9792 -78.8733 273° West 387 445 24,500 900 Climbing Washington Center
06:00AM 38.9836 -79.0125 272° West 387 445 25,400 900 Climbing Washington Center
06:01AM 38.9858 -79.1489 271° West 387 445 26,300 960 Climbing Washington Center
06:02AM 38.9900 -79.2878 272° West 387 445 27,300 900 Climbing Washington Center
06:03AM 38.9942 -79.4244 272° West 387 445 28,200 840 Climbing Washington Center
06:04AM 38.9961 -79.5553 271° West 387 445 29,100 900 Climbing Washington Center
06:05AM 39.0014 -79.7106 273° West 395 455 30,100 900 Climbing Washington Center
06:06AM 39.0033 -79.8361 271° West 395 455 31,000 900 Climbing Washington Center
06:07AM 39.0067 -79.9728 272° West 395 455 31,900 900 Climbing Washington Center
06:08AM 39.0050 -80.0928 269° West 382 440 32,800 900 Climbing Indianapolis Center
06:09AM 39.0069 -80.2297 271° West 383 441 33,700 900 Climbing Indianapolis Center
06:10AM 39.0078 -80.3650 270° West 379 436 34,700 900 Climbing Indianapolis Center
06:11AM 39.0294 -80.4992 282° West 396 456 35,600 600 Climbing Indianapolis Center
06:12AM 39.0847 -80.6219 300° West 399 459 36,000 180 Climbing Indianapolis Center
06:13AM 39.1428 -80.7531 300° West 421 484 36,000  Level Indianapolis Center
06:14AM 39.2033 -80.8892 300° West 439 505 36,000  Level Indianapolis Center
06:15AM 39.2661 -81.0281 300° West 450 518 36,000  Level Indianapolis Center
06:16AM 39.3417 -81.2014 299° West 464 534 36,000  Level Indianapolis Center
06:17AM 39.4033 -81.3419 300° West 454 522 36,000  Level Indianapolis Center
06:18AM 39.4647 -81.4828 299° West 451 519 36,000  Level Indianapolis Center
06:19AM 39.5258 -81.6244 299° West 452 520 36,000  Level Indianapolis Center
06:20AM 39.5869 -81.7667 299° West 453 521 36,000  Level Indianapolis Center
06:21AM 39.6475 -81.9089 299° West 452 520 36,000  Level Indianapolis Center
06:22AM 39.7086 -82.0506 299° West 451 519 36,000  Level Indianapolis Center
06:23AM 39.7697 -82.1933 299° West 449 517 36,000  Level Indianapolis Center
06:24AM 39.8294 -82.3356 299° West 444 511 36,000  Level Indianapolis Center
06:25AM 39.8889 -82.4783 299° West 446 513 36,000  Level Indianapolis Center
06:26AM 39.9492 -82.6222 299° West 450 518 36,000  Level Indianapolis Center
06:27AM 40.0103 -82.7661 299° West 452 520 36,000  Level Indianapolis Center
06:28AM 40.0706 -82.9106 299° West 452 520 36,000  Level Indianapolis Center
06:29AM 40.1306 -83.0550 299° West 453 521 36,000  Level Indianapolis Center
06:30AM 40.1894 -83.1981 298° West 448 516 36,000  Level Indianapolis Center
06:31AM 40.2469 -83.3408 298° West 443 510 36,000  Level Indianapolis Center
06:32AM 40.3053 -83.4825 298° West 442 509 36,000  Level Indianapolis Center
06:33AM 40.3628 -83.6261 298° West 443 510 36,000  Level Indianapolis Center
06:34AM 40.4219 -83.7719 298° West 448 516 36,000 -60 Level Indianapolis Center
06:35AM 40.4819 -83.9200 298° West 455 524 35,900  Descending Indianapolis Center
06:36AM 40.5406 -84.0675 298° West 455 524 36,000  Climbing Indianapolis Center
06:37AM 40.6000 -84.2150 298° West 454 522 36,000  Level Indianapolis Center
06:38AM 40.6575 -84.3619 297° West 450 518 36,000 -420 Level Indianapolis Center
06:39AM 40.7164 -84.5100 298° West 453 521 35,200 -900 Descending Indianapolis Center
06:40AM 40.7750 -84.6617 297° West 461 531 34,200 -600 Descending Indianapolis Center
06:41AM 40.8283 -84.8144 295° West 458 527 34,000 -480 Descending Indianapolis Center
06:42AM 40.8700 -84.9486 292° West 452 520 33,300 -1,080 Descending Indianapolis Center
06:43AM 40.9250 -85.1336 292° West 453 521 31,900 -1,380 Descending Indianapolis Center
06:44AM 40.9733 -85.2936 292° West 459 528 30,400 -1,500 Descending Chicago Center
06:45AM 41.0200 -85.4500 292° West 459 528 28,800 -1,560 Descending Chicago Center
06:46AM 41.0664 -85.6064 292° West 456 525 27,300 -1,500 Descending Chicago Center
06:47AM 41.1131 -85.7631 292° West 455 524 25,800 -1,500 Descending Chicago Center
06:48AM 41.1600 -85.9222 291° West 459 528 24,400 -1,020 Descending Chicago Center
06:49AM 41.2050 -86.0758 291° West 448 516 23,800 -1,320 Descending Chicago Center
06:50AM 41.2486 -86.2253 291° West 434 499 21,800 -1,860 Descending Chicago Center
06:51AM 41.2919 -86.3761 291° West 432 497 20,100 -1,560 Descending Chicago Center
06:52AM 41.3331 -86.5181 291° West 413 475 18,700 -1,740 Descending Chicago Center
06:53AM 41.3722 -86.6553 291° West 398 458 16,700 -2,220 Descending Chicago Center
06:54AM 41.4167 -86.8086 291° West 396 456 14,300 -2,220 Descending Chicago Center
06:55AM 41.4544 -86.9397 291° West 385 443 12,300 -1,620 Descending Chicago Center
06:56AM 41.4894 -87.0664 290° West 370 426 11,100 -660 Descending Chicago Center
06:57AM 41.5336 -87.1858 296° West 364 419 11,000 -60 Descending Chicago Center
06:58AM 41.5992 -87.2914 310° West 371 427 11,000 -360 Level Chicago Center
06:59AM 41.6594 -87.3878 310° West 349 402 10,300 -1,080 Descending Chicago Center
07:00AM 41.7086 -87.4669 310° West 289 333 8,900 -1,200 Descending Chicago Center
07:01AM 41.7656 -87.5292 321° Northwest 283 326 8,000 -720 Descending Chicago Center
07:02AM 41.8347 -87.5272 North 253 291 7,500 -1,140 Descending Chicago Center
07:03AM 41.9125 -87.5256 North 238 274 5,800 -1,260 Descending Chicago Center
07:04AM 41.9481 -87.5817 310° West 219 252 5,000 -1,020 Descending Chicago Center
07:05AM 41.9675 -87.6583 289° West 218 251 3,800 -1,200 Descending Chicago Center
07:06AM 41.9689 -87.7331 271° West 209 241 2,700 -1,140 Descending Chicago Center